createdAt,value
2022-09-18T00:01:10.196Z,12.70
2022-09-18T00:03:37.603Z,12.70
2022-09-18T00:06:09.516Z,12.70
2022-09-18T00:08:38.539Z,12.70
2022-09-18T00:11:06.986Z,12.70
2022-09-18T00:13:37.771Z,12.70
2022-09-18T00:16:05.828Z,12.70
2022-09-18T00:18:33.071Z,12.70
2022-09-18T00:21:10.465Z,12.70
2022-09-18T00:23:37.530Z,12.70
2022-09-18T00:26:04.677Z,12.70
2022-09-18T00:28:32.421Z,12.70
2022-09-18T00:31:10.104Z,12.70
2022-09-18T00:33:37.702Z,12.70
2022-09-18T00:36:05.513Z,12.70
2022-09-18T00:38:33.274Z,12.70
2022-09-18T00:41:01.329Z,12.70
2022-09-18T00:43:29.577Z,12.70
2022-09-18T00:46:16.817Z,12.70
2022-09-18T00:48:50.052Z,12.70
2022-09-18T00:51:17.989Z,12.70
2022-09-18T00:53:48.398Z,12.70
2022-09-18T00:56:15.843Z,12.70
2022-09-18T00:58:43.842Z,12.70
2022-09-18T01:01:10.851Z,12.70
2022-09-18T01:03:37.992Z,12.60
2022-09-18T01:06:15.108Z,12.70
2022-09-18T01:08:48.360Z,12.70
2022-09-18T01:11:32.066Z,12.70
2022-09-18T01:14:21.960Z,12.70
2022-09-18T01:16:51.751Z,12.70
2022-09-18T01:19:18.777Z,12.60
2022-09-18T01:22:01.413Z,12.70
2022-09-18T01:24:42.608Z,12.60
2022-09-18T01:27:11.362Z,12.60
2022-09-18T01:29:55.466Z,12.60
2022-09-18T01:32:28.672Z,12.60
2022-09-18T01:34:57.993Z,12.70
2022-09-18T01:37:31.241Z,12.60
2022-09-18T01:40:16.435Z,12.60
2022-09-18T01:42:44.552Z,12.60
2022-09-18T01:45:14.760Z,12.60
2022-09-18T01:47:46.342Z,12.60
2022-09-18T01:50:15.278Z,12.60
2022-09-18T01:52:44.953Z,12.60
2022-09-18T01:55:15.335Z,12.60
2022-09-18T01:57:49.072Z,12.60
2022-09-18T02:00:16.319Z,12.60
2022-09-18T02:02:59.856Z,12.60
2022-09-18T02:05:28.783Z,12.60
2022-09-18T02:08:04.526Z,12.60
2022-09-18T02:10:32.811Z,12.60
2022-09-18T02:13:00.476Z,12.60
2022-09-18T02:15:29.727Z,12.50
2022-09-18T02:18:02.184Z,12.60
2022-09-18T02:20:31.039Z,12.50
2022-09-18T02:23:00.146Z,12.50
2022-09-18T02:25:32.934Z,12.50
2022-09-18T02:28:00.460Z,12.50
2022-09-18T02:30:28.154Z,12.50
2022-09-18T02:32:55.770Z,12.50
2022-09-18T02:35:25.424Z,12.50
2022-09-18T02:38:18.687Z,12.50
2022-09-18T02:40:50.308Z,12.50
2022-09-18T02:43:23.324Z,12.50
2022-09-18T02:46:10.687Z,12.50
2022-09-18T02:48:52.855Z,12.50
2022-09-18T02:51:22.929Z,12.50
2022-09-18T02:53:54.083Z,12.50
2022-09-18T02:56:27.836Z,12.50
2022-09-18T02:58:55.876Z,12.50
2022-09-18T03:01:24.190Z,12.50
2022-09-18T03:03:51.922Z,12.50
2022-09-18T03:06:19.022Z,12.50
2022-09-18T03:08:46.571Z,12.50
2022-09-18T03:11:13.570Z,12.50
2022-09-18T03:13:40.550Z,12.50
2022-09-18T03:16:08.535Z,12.40
2022-09-18T03:18:35.637Z,12.40
2022-09-18T03:21:05.379Z,12.40
2022-09-18T03:23:32.475Z,12.40
2022-09-18T03:25:59.542Z,12.40
2022-09-18T03:28:26.612Z,12.40
2022-09-18T03:30:53.707Z,12.40
2022-09-18T03:33:20.713Z,12.40
2022-09-18T03:35:47.784Z,12.40
2022-09-18T03:38:15.125Z,12.40
2022-09-18T03:40:47.776Z,12.40
2022-09-18T03:43:15.227Z,12.40
2022-09-18T03:45:44.643Z,12.40
2022-09-18T03:48:11.794Z,12.30
2022-09-18T03:50:39.049Z,12.30
2022-09-18T03:53:08.431Z,12.30
2022-09-18T03:55:36.581Z,12.30
2022-09-18T03:58:03.659Z,12.30
2022-09-18T04:00:30.694Z,12.30
2022-09-18T04:02:57.843Z,12.30
2022-09-18T04:05:24.992Z,12.30
2022-09-18T04:07:52.050Z,12.30
2022-09-18T04:10:20.554Z,12.30
2022-09-18T04:12:50.689Z,12.30
2022-09-18T04:15:17.899Z,12.20
2022-09-18T04:17:48.088Z,12.30
2022-09-18T04:20:15.277Z,12.30
2022-09-18T04:22:42.344Z,12.20
2022-09-18T04:25:09.701Z,12.20
2022-09-18T04:27:37.101Z,12.20
2022-09-18T04:30:07.122Z,12.20
2022-09-18T04:32:34.144Z,12.20
2022-09-18T04:35:01.282Z,12.20
2022-09-18T04:37:28.343Z,12.20
2022-09-18T04:39:55.442Z,12.20
2022-09-18T04:42:22.579Z,12.30
2022-09-18T04:44:49.634Z,12.20
2022-09-18T04:47:18.967Z,12.20
2022-09-18T04:49:46.030Z,12.20
2022-09-18T04:52:13.042Z,12.20
2022-09-18T04:54:40.281Z,12.20
2022-09-18T04:57:07.415Z,12.20
2022-09-18T04:59:36.884Z,12.20
2022-09-18T05:02:03.947Z,12.10
2022-09-18T05:04:30.982Z,12.10
2022-09-18T05:06:57.963Z,12.10
2022-09-18T05:09:24.980Z,12.10
2022-09-18T05:11:52.098Z,12.10
2022-09-18T05:14:19.175Z,12.10
2022-09-18T05:16:46.294Z,12.10
2022-09-18T05:19:13.756Z,12.10
2022-09-18T05:21:40.801Z,12.10
2022-09-18T05:24:07.883Z,12.10
2022-09-18T05:26:35.277Z,12.10
2022-09-18T05:29:02.358Z,12.10
2022-09-18T05:31:29.458Z,12.10
2022-09-18T05:33:56.801Z,12.10
2022-09-18T05:36:23.865Z,12.10
2022-09-18T05:38:51.516Z,12.10
2022-09-18T05:41:18.508Z,12.10
2022-09-18T05:43:45.964Z,12.00
2022-09-18T05:46:14.412Z,12.00
2022-09-18T05:48:41.525Z,12.10
2022-09-18T05:51:08.517Z,12.00
2022-09-18T05:53:35.825Z,12.10
2022-09-18T05:56:02.862Z,12.10
2022-09-18T05:58:29.867Z,12.10
2022-09-18T06:00:58.703Z,12.10
2022-09-18T06:03:25.955Z,12.10
2022-09-18T06:05:53.689Z,12.10
2022-09-18T06:08:21.063Z,12.10
2022-09-18T06:10:48.308Z,12.00
2022-09-18T06:13:16.702Z,12.10
2022-09-18T06:15:45.261Z,12.10
2022-09-18T06:18:15.622Z,12.10
2022-09-18T06:20:45.689Z,12.10
2022-09-18T06:23:12.744Z,12.10
2022-09-18T06:25:39.736Z,12.10
2022-09-18T06:28:06.744Z,12.10
2022-09-18T06:30:34.767Z,12.00
2022-09-18T06:33:02.640Z,12.10
2022-09-18T06:35:29.761Z,12.10
2022-09-18T06:37:59.808Z,12.00
2022-09-18T06:40:26.950Z,12.00
2022-09-18T06:42:57.632Z,12.00
2022-09-18T06:45:25.803Z,12.10
2022-09-18T06:47:55.897Z,12.10
2022-09-18T06:50:23.278Z,12.00
2022-09-18T06:52:50.641Z,12.00
2022-09-18T06:55:18.359Z,12.00
2022-09-18T06:57:54.987Z,12.00
2022-09-18T07:00:22.789Z,12.00
2022-09-18T07:03:00.247Z,12.00
2022-09-18T07:05:28.617Z,12.00
2022-09-18T07:07:55.625Z,12.00
2022-09-18T07:10:22.851Z,12.00
2022-09-18T07:12:50.033Z,11.90
2022-09-18T07:15:18.113Z,11.90
2022-09-18T07:17:45.926Z,11.90
2022-09-18T07:20:13.271Z,11.90
2022-09-18T07:22:44.896Z,11.90
2022-09-18T07:25:14.173Z,11.90
2022-09-18T07:27:41.083Z,12.00
2022-09-18T07:30:08.360Z,11.90
2022-09-18T07:32:35.679Z,12.00
2022-09-18T07:35:02.643Z,11.90
2022-09-18T07:37:29.746Z,11.90
2022-09-18T07:39:56.842Z,11.90
2022-09-18T07:42:24.000Z,11.90
2022-09-18T07:44:50.943Z,12.00
2022-09-18T07:47:17.936Z,11.90
2022-09-18T07:49:44.982Z,11.90
2022-09-18T07:52:12.333Z,12.00
2022-09-18T07:54:39.397Z,12.00
2022-09-18T07:57:06.468Z,12.00
2022-09-18T07:59:33.565Z,11.90
2022-09-18T08:02:00.640Z,12.00
2022-09-18T08:04:27.749Z,12.00
2022-09-18T08:06:55.178Z,12.00
2022-09-18T08:09:22.272Z,12.00
2022-09-18T08:11:51.646Z,12.00
2022-09-18T08:14:18.597Z,12.00
2022-09-18T08:16:45.797Z,12.00
2022-09-18T08:19:13.020Z,12.00
2022-09-18T08:21:40.038Z,12.00
2022-09-18T08:24:07.145Z,12.00
2022-09-18T08:26:38.426Z,12.00
2022-09-18T08:29:06.475Z,12.00
2022-09-18T08:31:33.496Z,12.00
2022-09-18T08:34:01.542Z,12.00
2022-09-18T08:36:28.694Z,12.00
2022-09-18T08:38:55.873Z,12.00
2022-09-18T08:41:47.468Z,12.10
2022-09-18T08:44:24.041Z,12.10
2022-09-18T08:46:51.157Z,12.10
2022-09-18T08:49:18.462Z,12.10
2022-09-18T08:51:51.187Z,12.10
2022-09-18T08:54:18.176Z,12.10
2022-09-18T08:56:46.717Z,12.10
2022-09-18T08:59:34.468Z,12.10
2022-09-18T09:02:25.024Z,12.10
2022-09-18T09:04:57.815Z,12.10
2022-09-18T09:07:33.950Z,12.10
2022-09-18T09:10:03.640Z,12.10
2022-09-18T09:12:30.638Z,12.10
2022-09-18T09:15:05.187Z,12.10
2022-09-18T09:17:35.007Z,12.10
2022-09-18T09:20:12.315Z,12.10
2022-09-18T09:22:59.716Z,12.20
2022-09-18T09:25:29.899Z,12.10
2022-09-18T09:28:17.850Z,12.20
2022-09-18T09:30:46.428Z,12.20
2022-09-18T09:33:13.429Z,12.20
2022-09-18T09:35:40.420Z,12.20
2022-09-18T09:38:26.330Z,12.20
2022-09-18T09:40:54.414Z,12.30
2022-09-18T09:43:39.035Z,12.30
2022-09-18T09:46:12.082Z,12.30
2022-09-18T09:49:01.802Z,12.30
2022-09-18T09:51:47.667Z,12.30
2022-09-18T09:54:14.738Z,12.30
2022-09-18T09:56:53.627Z,12.30
2022-09-18T09:59:20.805Z,12.30
2022-09-18T10:01:53.118Z,12.30
2022-09-18T10:04:40.306Z,12.30
2022-09-18T10:07:16.458Z,12.30
2022-09-18T10:09:54.414Z,12.40
2022-09-18T10:12:21.477Z,12.40
2022-09-18T10:14:49.541Z,12.40
2022-09-18T10:17:18.614Z,12.40
2022-09-18T10:19:46.515Z,12.40
2022-09-18T10:22:15.774Z,12.40
2022-09-18T10:24:42.713Z,12.40
2022-09-18T10:27:14.145Z,12.40
2022-09-18T10:29:41.817Z,12.40
2022-09-18T10:32:11.644Z,12.40
2022-09-18T10:34:40.888Z,12.50
2022-09-18T10:37:18.173Z,12.50
2022-09-18T10:39:49.820Z,12.50
2022-09-18T10:42:18.258Z,12.50
2022-09-18T10:44:50.212Z,12.50
2022-09-18T10:47:18.427Z,12.60
2022-09-18T10:49:59.332Z,12.60
2022-09-18T10:52:32.265Z,12.60
2022-09-18T10:54:59.175Z,12.60
2022-09-18T10:57:27.988Z,12.60
2022-09-18T10:59:56.255Z,12.60
2022-09-18T11:02:24.921Z,12.70
2022-09-18T11:04:51.889Z,12.70
2022-09-18T11:07:22.404Z,12.70
2022-09-18T11:09:52.613Z,12.70
2022-09-18T11:12:24.159Z,12.70
2022-09-18T11:14:58.863Z,12.70
2022-09-18T11:17:30.310Z,12.80
2022-09-18T11:19:58.426Z,12.80
2022-09-18T11:22:31.939Z,12.80
2022-09-18T11:25:14.855Z,12.80
2022-09-18T11:27:52.444Z,12.80
2022-09-18T11:30:25.706Z,12.80
2022-09-18T11:33:25.104Z,12.80
2022-09-18T11:35:55.569Z,12.80
2022-09-18T11:38:22.772Z,12.80
2022-09-18T11:40:51.273Z,12.80
2022-09-18T11:43:22.452Z,12.80
2022-09-18T11:45:58.535Z,12.80
2022-09-18T11:48:28.572Z,12.80
2022-09-18T11:50:57.179Z,12.90
2022-09-18T11:53:28.853Z,12.80
2022-09-18T11:55:58.947Z,12.90
2022-09-18T11:58:49.423Z,12.90
2022-09-18T12:01:55.718Z,12.90
2022-09-18T12:04:31.746Z,12.90
2022-09-18T12:10:06.363Z,12.90
